sensor_id;sensor_type;location;lat;lon;timestamp;temperature;humidity
6357;DHT22;3211;53.452;-2.264;2023-01-15T00:01:42;4.50;99.90
6357;DHT22;3211;53.452;-2.264;2023-01-15T00:04:10;4.50;99.90
6357;DHT22;3211;53.452;-2.264;2023-01-15T00:06:39;4.50;99.90
6357;DHT22;3211;53.452;-2.264;2023-01-15T00:09:07;4.50;99.90
6357;DHT22;3211;53.452;-2.264;2023-01-15T00:11:34;4.50;99.90
6357;DHT22;3211;53.452;-2.264;2023-01-15T00:14:01;4.50;99.90
6357;DHT22;3211;53.452;-2.264;2023-01-15T00:16:28;4.50;99.90
6357;DHT22;3211;53.452;-2.264;2023-01-15T00:18:58;4.50;99.90
6357;DHT22;3211;53.452;-2.264;2023-01-15T00:21:27;4.50;99.90
6357;DHT22;3211;53.452;-2.264;2023-01-15T00:23:54;4.50;99.90
6357;DHT22;3211;53.452;-2.264;2023-01-15T00:26:39;4.50;99.90
6357;DHT22;3211;53.452;-2.264;2023-01-15T00:29:24;4.50;99.90
6357;DHT22;3211;53.452;-2.264;2023-01-15T00:31:54;4.40;99.90
6357;DHT22;3211;53.452;-2.264;2023-01-15T00:34:23;4.50;99.90
6357;DHT22;3211;53.452;-2.264;2023-01-15T00:36:50;4.40;99.90
6357;DHT22;3211;53.452;-2.264;2023-01-15T00:39:17;4.40;99.90
6357;DHT22;3211;53.452;-2.264;2023-01-15T00:41:44;4.40;99.90
6357;DHT22;3211;53.452;-2.264;2023-01-15T00:44:12;4.40;99.90
6357;DHT22;3211;53.452;-2.264;2023-01-15T00:46:39;4.40;99.90
6357;DHT22;3211;53.452;-2.264;2023-01-15T00:49:06;4.40;99.90
6357;DHT22;3211;53.452;-2.264;2023-01-15T00:51:34;4.40;99.90
6357;DHT22;3211;53.452;-2.264;2023-01-15T00:54:02;4.40;99.90
6357;DHT22;3211;53.452;-2.264;2023-01-15T00:56:29;4.40;99.90
6357;DHT22;3211;53.452;-2.264;2023-01-15T00:58:57;4.40;99.90
6357;DHT22;3211;53.452;-2.264;2023-01-15T01:01:26;4.40;99.90
6357;DHT22;3211;53.452;-2.264;2023-01-15T01:03:53;4.40;99.90
6357;DHT22;3211;53.452;-2.264;2023-01-15T01:06:20;4.40;99.90
6357;DHT22;3211;53.452;-2.264;2023-01-15T01:08:48;4.30;99.90
6357;DHT22;3211;53.452;-2.264;2023-01-15T01:11:17;4.30;99.90
6357;DHT22;3211;53.452;-2.264;2023-01-15T01:13:45;4.30;99.90
6357;DHT22;3211;53.452;-2.264;2023-01-15T01:16:31;4.30;99.90
6357;DHT22;3211;53.452;-2.264;2023-01-15T01:19:01;4.20;99.90
6357;DHT22;3211;53.452;-2.264;2023-01-15T01:21:29;4.20;99.90
6357;DHT22;3211;53.452;-2.264;2023-01-15T01:23:59;4.20;99.90
6357;DHT22;3211;53.452;-2.264;2023-01-15T01:26:26;4.20;99.90
6357;DHT22;3211;53.452;-2.264;2023-01-15T01:28:53;4.30;99.90
6357;DHT22;3211;53.452;-2.264;2023-01-15T01:31:21;4.30;99.90
6357;DHT22;3211;53.452;-2.264;2023-01-15T01:33:49;4.30;99.90
6357;DHT22;3211;53.452;-2.264;2023-01-15T01:36:16;4.30;99.90
6357;DHT22;3211;53.452;-2.264;2023-01-15T01:38:46;4.30;99.90
6357;DHT22;3211;53.452;-2.264;2023-01-15T01:41:16;4.30;99.90
6357;DHT22;3211;53.452;-2.264;2023-01-15T01:43:53;4.30;99.90
6357;DHT22;3211;53.452;-2.264;2023-01-15T01:46:20;4.30;99.90
6357;DHT22;3211;53.452;-2.264;2023-01-15T01:48:48;4.30;99.90
6357;DHT22;3211;53.452;-2.264;2023-01-15T01:51:17;4.30;99.90
6357;DHT22;3211;53.452;-2.264;2023-01-15T01:53:46;4.30;99.90
6357;DHT22;3211;53.452;-2.264;2023-01-15T01:56:13;4.30;99.90
6357;DHT22;3211;53.452;-2.264;2023-01-15T01:58:44;4.30;99.90
6357;DHT22;3211;53.452;-2.264;2023-01-15T02:01:13;4.30;99.90
6357;DHT22;3211;53.452;-2.264;2023-01-15T02:03:40;4.20;99.90
6357;DHT22;3211;53.452;-2.264;2023-01-15T02:06:09;4.30;99.90
6357;DHT22;3211;53.452;-2.264;2023-01-15T02:08:36;4.30;99.90
6357;DHT22;3211;53.452;-2.264;2023-01-15T02:11:05;4.30;99.90
6357;DHT22;3211;53.452;-2.264;2023-01-15T02:13:36;4.40;99.90
6357;DHT22;3211;53.452;-2.264;2023-01-15T02:16:08;4.40;99.90
6357;DHT22;3211;53.452;-2.264;2023-01-15T02:18:43;4.30;99.90
6357;DHT22;3211;53.452;-2.264;2023-01-15T02:21:18;4.30;99.90
6357;DHT22;3211;53.452;-2.264;2023-01-15T02:24:16;4.30;99.90
6357;DHT22;3211;53.452;-2.264;2023-01-15T02:27:04;4.30;99.90
6357;DHT22;3211;53.452;-2.264;2023-01-15T02:29:38;4.40;99.90
6357;DHT22;3211;53.452;-2.264;2023-01-15T02:32:10;4.40;99.90
6357;DHT22;3211;53.452;-2.264;2023-01-15T02:34:43;4.30;99.90
6357;DHT22;3211;53.452;-2.264;2023-01-15T02:37:16;4.30;99.90
6357;DHT22;3211;53.452;-2.264;2023-01-15T02:39:45;4.30;99.90
6357;DHT22;3211;53.452;-2.264;2023-01-15T02:42:15;4.20;99.90
6357;DHT22;3211;53.452;-2.264;2023-01-15T02:44:46;4.30;99.90
6357;DHT22;3211;53.452;-2.264;2023-01-15T02:47:15;4.30;99.90
6357;DHT22;3211;53.452;-2.264;2023-01-15T02:49:44;4.30;99.90
6357;DHT22;3211;53.452;-2.264;2023-01-15T02:52:15;4.30;99.90
6357;DHT22;3211;53.452;-2.264;2023-01-15T02:54:47;4.40;99.90
6357;DHT22;3211;53.452;-2.264;2023-01-15T02:57:17;4.40;99.90
6357;DHT22;3211;53.452;-2.264;2023-01-15T02:59:47;4.40;99.90
6357;DHT22;3211;53.452;-2.264;2023-01-15T03:02:19;4.50;99.90
6357;DHT22;3211;53.452;-2.264;2023-01-15T03:04:49;4.40;99.90
6357;DHT22;3211;53.452;-2.264;2023-01-15T03:07:20;4.40;99.90
6357;DHT22;3211;53.452;-2.264;2023-01-15T03:09:49;4.30;99.90
6357;DHT22;3211;53.452;-2.264;2023-01-15T03:12:23;4.30;99.90
6357;DHT22;3211;53.452;-2.264;2023-01-15T03:14:59;4.30;99.90
6357;DHT22;3211;53.452;-2.264;2023-01-15T03:20:07;4.30;99.90
6357;DHT22;3211;53.452;-2.264;2023-01-15T03:22:39;4.20;99.90
6357;DHT22;3211;53.452;-2.264;2023-01-15T03:25:11;4.10;99.90
6357;DHT22;3211;53.452;-2.264;2023-01-15T03:27:40;4.10;99.90
6357;DHT22;3211;53.452;-2.264;2023-01-15T03:30:10;4.10;99.90
6357;DHT22;3211;53.452;-2.264;2023-01-15T03:32:38;4.10;99.90
6357;DHT22;3211;53.452;-2.264;2023-01-15T03:35:06;4.10;99.90
6357;DHT22;3211;53.452;-2.264;2023-01-15T03:37:35;4.10;99.90
6357;DHT22;3211;53.452;-2.264;2023-01-15T03:40:03;4.10;99.90
6357;DHT22;3211;53.452;-2.264;2023-01-15T03:42:45;4.10;99.90
6357;DHT22;3211;53.452;-2.264;2023-01-15T03:45:18;4.10;99.90
6357;DHT22;3211;53.452;-2.264;2023-01-15T03:47:53;4.00;99.90
6357;DHT22;3211;53.452;-2.264;2023-01-15T03:50:28;4.20;99.90
6357;DHT22;3211;53.452;-2.264;2023-01-15T03:53:04;4.20;99.90
6357;DHT22;3211;53.452;-2.264;2023-01-15T03:55:39;4.20;99.90
6357;DHT22;3211;53.452;-2.264;2023-01-15T03:58:13;4.30;99.90
6357;DHT22;3211;53.452;-2.264;2023-01-15T04:00:43;4.30;99.90
6357;DHT22;3211;53.452;-2.264;2023-01-15T04:03:12;4.40;99.90
6357;DHT22;3211;53.452;-2.264;2023-01-15T04:05:40;4.40;99.90
6357;DHT22;3211;53.452;-2.264;2023-01-15T04:08:07;4.40;99.90
6357;DHT22;3211;53.452;-2.264;2023-01-15T04:10:35;4.40;99.90
6357;DHT22;3211;53.452;-2.264;2023-01-15T04:13:02;4.40;99.90
6357;DHT22;3211;53.452;-2.264;2023-01-15T04:15:30;4.50;99.90
6357;DHT22;3211;53.452;-2.264;2023-01-15T04:17:57;4.50;99.90
6357;DHT22;3211;53.452;-2.264;2023-01-15T04:20:24;4.40;99.90
6357;DHT22;3211;53.452;-2.264;2023-01-15T04:22:51;4.50;99.90
6357;DHT22;3211;53.452;-2.264;2023-01-15T04:25:18;4.50;99.90
6357;DHT22;3211;53.452;-2.264;2023-01-15T04:27:45;4.50;99.90
6357;DHT22;3211;53.452;-2.264;2023-01-15T04:30:12;4.50;99.90
6357;DHT22;3211;53.452;-2.264;2023-01-15T04:32:43;4.50;99.90
6357;DHT22;3211;53.452;-2.264;2023-01-15T04:35:10;4.60;99.90
6357;DHT22;3211;53.452;-2.264;2023-01-15T04:37:37;4.60;99.90
6357;DHT22;3211;53.452;-2.264;2023-01-15T04:40:05;4.60;99.90
6357;DHT22;3211;53.452;-2.264;2023-01-15T04:42:32;4.60;99.90
6357;DHT22;3211;53.452;-2.264;2023-01-15T04:45:16;4.60;99.90
6357;DHT22;3211;53.452;-2.264;2023-01-15T04:47:44;4.50;99.90
6357;DHT22;3211;53.452;-2.264;2023-01-15T04:50:11;4.50;99.90
6357;DHT22;3211;53.452;-2.264;2023-01-15T04:52:38;4.50;99.90
6357;DHT22;3211;53.452;-2.264;2023-01-15T04:55:06;4.50;99.90
6357;DHT22;3211;53.452;-2.264;2023-01-15T04:57:32;4.40;99.90
6357;DHT22;3211;53.452;-2.264;2023-01-15T05:00:02;4.40;99.90
6357;DHT22;3211;53.452;-2.264;2023-01-15T05:02:29;4.50;99.90
6357;DHT22;3211;53.452;-2.264;2023-01-15T05:04:57;4.50;99.90
6357;DHT22;3211;53.452;-2.264;2023-01-15T05:07:24;4.60;99.90
6357;DHT22;3211;53.452;-2.264;2023-01-15T05:09:51;4.70;99.90
6357;DHT22;3211;53.452;-2.264;2023-01-15T05:12:19;4.60;99.90
6357;DHT22;3211;53.452;-2.264;2023-01-15T05:14:46;4.80;99.90
6357;DHT22;3211;53.452;-2.264;2023-01-15T05:17:13;5.00;99.90
6357;DHT22;3211;53.452;-2.264;2023-01-15T05:19:40;5.30;99.90
6357;DHT22;3211;53.452;-2.264;2023-01-15T05:22:08;5.40;99.90
6357;DHT22;3211;53.452;-2.264;2023-01-15T05:24:35;5.50;99.90
6357;DHT22;3211;53.452;-2.264;2023-01-15T05:27:02;5.60;99.90
6357;DHT22;3211;53.452;-2.264;2023-01-15T05:29:30;5.70;99.90
6357;DHT22;3211;53.452;-2.264;2023-01-15T05:31:57;5.70;99.90
6357;DHT22;3211;53.452;-2.264;2023-01-15T05:34:24;5.80;99.90
6357;DHT22;3211;53.452;-2.264;2023-01-15T05:36:51;5.90;99.90
6357;DHT22;3211;53.452;-2.264;2023-01-15T05:39:19;5.90;99.90
6357;DHT22;3211;53.452;-2.264;2023-01-15T05:41:46;5.90;99.90
6357;DHT22;3211;53.452;-2.264;2023-01-15T05:44:18;5.80;99.90
6357;DHT22;3211;53.452;-2.264;2023-01-15T05:46:47;5.80;99.90
6357;DHT22;3211;53.452;-2.264;2023-01-15T05:49:16;5.70;99.90
6357;DHT22;3211;53.452;-2.264;2023-01-15T05:51:43;5.60;99.90
6357;DHT22;3211;53.452;-2.264;2023-01-15T05:54:13;5.60;99.90
6357;DHT22;3211;53.452;-2.264;2023-01-15T05:56:42;5.60;99.90
6357;DHT22;3211;53.452;-2.264;2023-01-15T05:59:10;5.50;99.90
6357;DHT22;3211;53.452;-2.264;2023-01-15T06:01:38;5.40;99.90
6357;DHT22;3211;53.452;-2.264;2023-01-15T06:04:06;5.30;99.90
6357;DHT22;3211;53.452;-2.264;2023-01-15T06:06:33;5.30;99.90
6357;DHT22;3211;53.452;-2.264;2023-01-15T06:09:01;5.20;99.90
6357;DHT22;3211;53.452;-2.264;2023-01-15T06:11:28;5.10;99.90
6357;DHT22;3211;53.452;-2.264;2023-01-15T06:13:56;4.90;99.90
6357;DHT22;3211;53.452;-2.264;2023-01-15T06:16:24;4.90;99.90
6357;DHT22;3211;53.452;-2.264;2023-01-15T06:18:51;4.90;99.90
6357;DHT22;3211;53.452;-2.264;2023-01-15T06:21:18;4.60;99.90
6357;DHT22;3211;53.452;-2.264;2023-01-15T06:23:45;4.50;99.90
6357;DHT22;3211;53.452;-2.264;2023-01-15T06:26:15;4.50;99.90
6357;DHT22;3211;53.452;-2.264;2023-01-15T06:28:43;4.40;99.90
6357;DHT22;3211;53.452;-2.264;2023-01-15T06:31:12;4.40;99.90
6357;DHT22;3211;53.452;-2.264;2023-01-15T06:33:40;4.40;99.90
6357;DHT22;3211;53.452;-2.264;2023-01-15T06:36:09;4.40;99.90
6357;DHT22;3211;53.452;-2.264;2023-01-15T06:38:37;4.40;99.90
6357;DHT22;3211;53.452;-2.264;2023-01-15T06:41:05;4.30;99.90
6357;DHT22;3211;53.452;-2.264;2023-01-15T06:43:53;4.30;99.90
6357;DHT22;3211;53.452;-2.264;2023-01-15T06:46:41;4.30;99.90
6357;DHT22;3211;53.452;-2.264;2023-01-15T06:49:26;4.30;99.90
6357;DHT22;3211;53.452;-2.264;2023-01-15T06:51:53;4.30;99.90
6357;DHT22;3211;53.452;-2.264;2023-01-15T06:54:20;4.30;99.90
6357;DHT22;3211;53.452;-2.264;2023-01-15T06:56:47;4.30;99.90
6357;DHT22;3211;53.452;-2.264;2023-01-15T06:59:14;4.40;99.90
6357;DHT22;3211;53.452;-2.264;2023-01-15T07:01:43;4.40;99.90
6357;DHT22;3211;53.452;-2.264;2023-01-15T07:04:10;4.40;99.90
6357;DHT22;3211;53.452;-2.264;2023-01-15T07:06:37;4.50;99.90
6357;DHT22;3211;53.452;-2.264;2023-01-15T07:09:04;4.50;99.90
6357;DHT22;3211;53.452;-2.264;2023-01-15T07:11:31;4.50;99.90
6357;DHT22;3211;53.452;-2.264;2023-01-15T07:13:58;4.60;99.90
6357;DHT22;3211;53.452;-2.264;2023-01-15T07:16:31;4.60;99.90
6357;DHT22;3211;53.452;-2.264;2023-01-15T07:19:00;4.70;99.90
6357;DHT22;3211;53.452;-2.264;2023-01-15T07:21:27;4.70;99.90
6357;DHT22;3211;53.452;-2.264;2023-01-15T07:23:57;4.70;99.90
6357;DHT22;3211;53.452;-2.264;2023-01-15T07:26:24;4.80;99.90
6357;DHT22;3211;53.452;-2.264;2023-01-15T07:28:51;4.80;99.90
6357;DHT22;3211;53.452;-2.264;2023-01-15T07:31:18;4.80;99.90
6357;DHT22;3211;53.452;-2.264;2023-01-15T07:33:45;4.80;99.90
6357;DHT22;3211;53.452;-2.264;2023-01-15T07:36:13;4.90;99.90
6357;DHT22;3211;53.452;-2.264;2023-01-15T07:38:40;4.90;99.90
6357;DHT22;3211;53.452;-2.264;2023-01-15T07:41:07;4.80;99.90
6357;DHT22;3211;53.452;-2.264;2023-01-15T07:43:52;4.80;99.90
6357;DHT22;3211;53.452;-2.264;2023-01-15T07:46:36;4.80;99.90
6357;DHT22;3211;53.452;-2.264;2023-01-15T07:49:20;4.80;99.90
6357;DHT22;3211;53.452;-2.264;2023-01-15T07:52:06;4.80;99.90
6357;DHT22;3211;53.452;-2.264;2023-01-15T07:54:33;4.80;99.90
6357;DHT22;3211;53.452;-2.264;2023-01-15T07:56:59;4.70;99.90
6357;DHT22;3211;53.452;-2.264;2023-01-15T07:59:26;4.80;99.90
6357;DHT22;3211;53.452;-2.264;2023-01-15T08:01:53;4.80;99.90
6357;DHT22;3211;53.452;-2.264;2023-01-15T08:04:20;4.80;99.90
6357;DHT22;3211;53.452;-2.264;2023-01-15T08:06:48;4.80;99.90
6357;DHT22;3211;53.452;-2.264;2023-01-15T08:09:16;4.70;99.90
6357;DHT22;3211;53.452;-2.264;2023-01-15T08:11:43;4.70;99.90
6357;DHT22;3211;53.452;-2.264;2023-01-15T08:14:27;4.70;99.90
6357;DHT22;3211;53.452;-2.264;2023-01-15T08:17:12;4.70;99.90
6357;DHT22;3211;53.452;-2.264;2023-01-15T08:19:38;4.80;99.90
6357;DHT22;3211;53.452;-2.264;2023-01-15T08:22:05;4.80;99.90
6357;DHT22;3211;53.452;-2.264;2023-01-15T08:24:34;4.80;99.90
6357;DHT22;3211;53.452;-2.264;2023-01-15T08:27:01;4.90;99.90
6357;DHT22;3211;53.452;-2.264;2023-01-15T08:29:28;4.90;99.90
6357;DHT22;3211;53.452;-2.264;2023-01-15T08:31:55;4.90;99.90
6357;DHT22;3211;53.452;-2.264;2023-01-15T08:34:22;4.90;99.90
6357;DHT22;3211;53.452;-2.264;2023-01-15T08:36:49;4.90;99.90
6357;DHT22;3211;53.452;-2.264;2023-01-15T08:39:21;4.90;99.90
6357;DHT22;3211;53.452;-2.264;2023-01-15T08:41:49;4.90;99.90
6357;DHT22;3211;53.452;-2.264;2023-01-15T08:44:16;4.90;99.90
6357;DHT22;3211;53.452;-2.264;2023-01-15T08:46:46;4.90;99.90
6357;DHT22;3211;53.452;-2.264;2023-01-15T08:49:13;4.90;99.90
6357;DHT22;3211;53.452;-2.264;2023-01-15T08:51:40;5.00;99.90
6357;DHT22;3211;53.452;-2.264;2023-01-15T08:54:08;5.00;99.90
6357;DHT22;3211;53.452;-2.264;2023-01-15T08:56:35;5.00;99.90
6357;DHT22;3211;53.452;-2.264;2023-01-15T08:59:05;5.00;99.90
6357;DHT22;3211;53.452;-2.264;2023-01-15T09:01:32;5.00;99.90
6357;DHT22;3211;53.452;-2.264;2023-01-15T09:03:59;5.00;99.90
6357;DHT22;3211;53.452;-2.264;2023-01-15T09:06:27;5.00;99.90
6357;DHT22;3211;53.452;-2.264;2023-01-15T09:08:54;5.00;99.90
6357;DHT22;3211;53.452;-2.264;2023-01-15T09:11:20;5.10;99.90
6357;DHT22;3211;53.452;-2.264;2023-01-15T09:13:47;5.10;99.90
6357;DHT22;3211;53.452;-2.264;2023-01-15T09:16:17;5.10;99.90
6357;DHT22;3211;53.452;-2.264;2023-01-15T09:18:44;5.10;99.90
6357;DHT22;3211;53.452;-2.264;2023-01-15T09:21:11;5.10;99.90
6357;DHT22;3211;53.452;-2.264;2023-01-15T09:23:38;5.10;99.90
6357;DHT22;3211;53.452;-2.264;2023-01-15T09:26:06;5.20;99.90
6357;DHT22;3211;53.452;-2.264;2023-01-15T09:28:33;5.20;99.90
6357;DHT22;3211;53.452;-2.264;2023-01-15T09:31:01;5.20;99.90
6357;DHT22;3211;53.452;-2.264;2023-01-15T09:33:29;5.20;99.90
6357;DHT22;3211;53.452;-2.264;2023-01-15T09:35:56;5.30;99.90
6357;DHT22;3211;53.452;-2.264;2023-01-15T09:38:23;5.30;99.90
6357;DHT22;3211;53.452;-2.264;2023-01-15T09:40:51;5.40;99.90
6357;DHT22;3211;53.452;-2.264;2023-01-15T09:43:37;5.40;99.90
6357;DHT22;3211;53.452;-2.264;2023-01-15T09:46:11;5.30;99.90
6357;DHT22;3211;53.452;-2.264;2023-01-15T09:48:51;5.40;99.90
6357;DHT22;3211;53.452;-2.264;2023-01-15T09:51:31;5.20;99.90
6357;DHT22;3211;53.452;-2.264;2023-01-15T09:54:18;5.30;99.90
6357;DHT22;3211;53.452;-2.264;2023-01-15T09:56:47;5.30;99.90
6357;DHT22;3211;53.452;-2.264;2023-01-15T09:59:20;5.30;99.90
6357;DHT22;3211;53.452;-2.264;2023-01-15T10:01:49;5.40;99.90
6357;DHT22;3211;53.452;-2.264;2023-01-15T10:04:29;5.40;99.90
6357;DHT22;3211;53.452;-2.264;2023-01-15T10:07:04;5.30;99.90
6357;DHT22;3211;53.452;-2.264;2023-01-15T10:09:35;5.30;99.90
6357;DHT22;3211;53.452;-2.264;2023-01-15T10:12:12;5.30;99.90
6357;DHT22;3211;53.452;-2.264;2023-01-15T10:15:04;5.20;99.90
6357;DHT22;3211;53.452;-2.264;2023-01-15T10:17:36;5.20;99.90
6357;DHT22;3211;53.452;-2.264;2023-01-15T10:20:13;5.20;99.90
6357;DHT22;3211;53.452;-2.264;2023-01-15T10:22:52;5.10;99.90
6357;DHT22;3211;53.452;-2.264;2023-01-15T10:25:24;5.10;99.90
6357;DHT22;3211;53.452;-2.264;2023-01-15T10:27:56;5.10;99.90
6357;DHT22;3211;53.452;-2.264;2023-01-15T10:30:35;5.20;99.90
6357;DHT22;3211;53.452;-2.264;2023-01-15T10:33:19;5.20;99.90
6357;DHT22;3211;53.452;-2.264;2023-01-15T10:35:55;5.20;99.90
6357;DHT22;3211;53.452;-2.264;2023-01-15T10:38:29;5.20;99.90
6357;DHT22;3211;53.452;-2.264;2023-01-15T10:41:10;5.30;99.90
6357;DHT22;3211;53.452;-2.264;2023-01-15T10:43:46;5.30;99.90
6357;DHT22;3211;53.452;-2.264;2023-01-15T10:46:16;5.30;99.90
6357;DHT22;3211;53.452;-2.264;2023-01-15T10:48:45;5.40;99.90
6357;DHT22;3211;53.452;-2.264;2023-01-15T10:51:16;5.30;99.90
6357;DHT22;3211;53.452;-2.264;2023-01-15T10:53:46;5.30;99.90
6357;DHT22;3211;53.452;-2.264;2023-01-15T10:56:25;5.30;99.90
6357;DHT22;3211;53.452;-2.264;2023-01-15T10:59:00;5.40;99.90
6357;DHT22;3211;53.452;-2.264;2023-01-15T11:01:30;5.40;99.90
6357;DHT22;3211;53.452;-2.264;2023-01-15T11:03:57;5.40;99.90
6357;DHT22;3211;53.452;-2.264;2023-01-15T11:06:28;5.50;99.90
6357;DHT22;3211;53.452;-2.264;2023-01-15T11:08:57;5.50;99.90
6357;DHT22;3211;53.452;-2.264;2023-01-15T11:11:30;5.60;99.90
6357;DHT22;3211;53.452;-2.264;2023-01-15T11:14:31;5.60;99.90
6357;DHT22;3211;53.452;-2.264;2023-01-15T11:17:16;5.80;99.90
6357;DHT22;3211;53.452;-2.264;2023-01-15T11:20:15;5.90;99.90
6357;DHT22;3211;53.452;-2.264;2023-01-15T11:22:44;5.90;99.90
6357;DHT22;3211;53.452;-2.264;2023-01-15T11:25:11;5.90;99.90
6357;DHT22;3211;53.452;-2.264;2023-01-15T11:27:39;6.00;99.90
6357;DHT22;3211;53.452;-2.264;2023-01-15T11:30:24;6.00;99.90
6357;DHT22;3211;53.452;-2.264;2023-01-15T11:32:55;6.20;99.90
6357;DHT22;3211;53.452;-2.264;2023-01-15T11:35:23;6.40;99.90
6357;DHT22;3211;53.452;-2.264;2023-01-15T11:38:02;6.40;99.90
6357;DHT22;3211;53.452;-2.264;2023-01-15T11:40:32;6.60;99.90
6357;DHT22;3211;53.452;-2.264;2023-01-15T11:42:59;6.80;99.90
6357;DHT22;3211;53.452;-2.264;2023-01-15T11:45:47;6.70;99.90
6357;DHT22;3211;53.452;-2.264;2023-01-15T11:48:43;6.60;99.90
6357;DHT22;3211;53.452;-2.264;2023-01-15T11:51:29;6.70;99.90
6357;DHT22;3211;53.452;-2.264;2023-01-15T11:54:02;6.70;99.90
6357;DHT22;3211;53.452;-2.264;2023-01-15T11:56:31;6.70;99.90
6357;DHT22;3211;53.452;-2.264;2023-01-15T11:59:01;6.80;99.90
6357;DHT22;3211;53.452;-2.264;2023-01-15T12:01:35;6.80;99.90
6357;DHT22;3211;53.452;-2.264;2023-01-15T12:04:04;6.80;99.90
6357;DHT22;3211;53.452;-2.264;2023-01-15T12:06:35;6.90;99.90
6357;DHT22;3211;53.452;-2.264;2023-01-15T12:09:12;7.10;99.90
6357;DHT22;3211;53.452;-2.264;2023-01-15T12:11:50;7.20;99.90
6357;DHT22;3211;53.452;-2.264;2023-01-15T12:14:45;7.10;99.90
6357;DHT22;3211;53.452;-2.264;2023-01-15T12:17:24;7.20;99.90
6357;DHT22;3211;53.452;-2.264;2023-01-15T12:19:58;6.90;99.90
6357;DHT22;3211;53.452;-2.264;2023-01-15T12:22:38;6.70;99.90
6357;DHT22;3211;53.452;-2.264;2023-01-15T12:25:22;6.70;99.90
6357;DHT22;3211;53.452;-2.264;2023-01-15T12:28:01;7.00;99.90
6357;DHT22;3211;53.452;-2.264;2023-01-15T12:30:37;7.20;99.90
6357;DHT22;3211;53.452;-2.264;2023-01-15T12:33:20;7.30;99.90
6357;DHT22;3211;53.452;-2.264;2023-01-15T12:35:54;7.50;99.90
6357;DHT22;3211;53.452;-2.264;2023-01-15T12:38:35;7.70;99.90
6357;DHT22;3211;53.452;-2.264;2023-01-15T12:41:10;7.40;99.90
6357;DHT22;3211;53.452;-2.264;2023-01-15T12:43:38;7.40;99.90
6357;DHT22;3211;53.452;-2.264;2023-01-15T12:46:28;7.50;99.90
6357;DHT22;3211;53.452;-2.264;2023-01-15T12:49:02;7.60;99.90
6357;DHT22;3211;53.452;-2.264;2023-01-15T12:51:34;7.70;99.90
6357;DHT22;3211;53.452;-2.264;2023-01-15T12:54:07;7.60;99.90
6357;DHT22;3211;53.452;-2.264;2023-01-15T12:56:46;7.90;99.90
6357;DHT22;3211;53.452;-2.264;2023-01-15T12:59:17;8.20;99.90
6357;DHT22;3211;53.452;-2.264;2023-01-15T13:01:51;8.50;99.90
6357;DHT22;3211;53.452;-2.264;2023-01-15T13:04:24;8.30;99.90
6357;DHT22;3211;53.452;-2.264;2023-01-15T13:06:59;8.70;99.90
6357;DHT22;3211;53.452;-2.264;2023-01-15T13:12:01;8.00;99.90
6357;DHT22;3211;53.452;-2.264;2023-01-15T13:14:28;8.00;99.90
6357;DHT22;3211;53.452;-2.264;2023-01-15T13:17:00;8.30;99.90
6357;DHT22;3211;53.452;-2.264;2023-01-15T13:19:39;8.30;99.90
6357;DHT22;3211;53.452;-2.264;2023-01-15T13:22:12;8.40;99.90
6357;DHT22;3211;53.452;-2.264;2023-01-15T13:25:00;8.20;99.90
6357;DHT22;3211;53.452;-2.264;2023-01-15T13:27:44;8.50;99.90
6357;DHT22;3211;53.452;-2.264;2023-01-15T13:30:23;9.00;99.90
6357;DHT22;3211;53.452;-2.264;2023-01-15T13:32:55;8.80;99.90
6357;DHT22;3211;53.452;-2.264;2023-01-15T13:35:28;8.80;99.90
6357;DHT22;3211;53.452;-2.264;2023-01-15T13:37:58;8.70;99.90
6357;DHT22;3211;53.452;-2.264;2023-01-15T13:40:28;8.50;99.90
6357;DHT22;3211;53.452;-2.264;2023-01-15T13:42:59;8.30;99.90
6357;DHT22;3211;53.452;-2.264;2023-01-15T13:45:35;8.10;99.90
6357;DHT22;3211;53.452;-2.264;2023-01-15T13:48:06;8.10;99.90
6357;DHT22;3211;53.452;-2.264;2023-01-15T13:50:36;8.00;99.90
6357;DHT22;3211;53.452;-2.264;2023-01-15T13:53:08;7.90;99.90
6357;DHT22;3211;53.452;-2.264;2023-01-15T13:55:41;7.90;99.90
6357;DHT22;3211;53.452;-2.264;2023-01-15T13:58:23;7.80;99.90
6357;DHT22;3211;53.452;-2.264;2023-01-15T14:01:01;7.90;99.90
6357;DHT22;3211;53.452;-2.264;2023-01-15T14:03:29;7.90;99.90
6357;DHT22;3211;53.452;-2.264;2023-01-15T14:05:58;7.90;99.90
6357;DHT22;3211;53.452;-2.264;2023-01-15T14:08:27;7.50;99.90
6357;DHT22;3211;53.452;-2.264;2023-01-15T14:10:54;7.40;99.90
6357;DHT22;3211;53.452;-2.264;2023-01-15T14:13:44;7.20;99.90
6357;DHT22;3211;53.452;-2.264;2023-01-15T14:22:01;7.10;99.90
6357;DHT22;3211;53.452;-2.264;2023-01-15T14:24:58;7.10;99.90
6357;DHT22;3211;53.452;-2.264;2023-01-15T14:27:47;7.00;99.90
6357;DHT22;3211;53.452;-2.264;2023-01-15T14:30:40;7.00;99.90
6357;DHT22;3211;53.452;-2.264;2023-01-15T14:33:20;6.90;99.90
6357;DHT22;3211;53.452;-2.264;2023-01-15T14:35:52;6.90;99.90
6357;DHT22;3211;53.452;-2.264;2023-01-15T14:38:20;6.90;99.90
6357;DHT22;3211;53.452;-2.264;2023-01-15T14:40:53;6.80;99.90
6357;DHT22;3211;53.452;-2.264;2023-01-15T14:43:22;6.80;99.90
6357;DHT22;3211;53.452;-2.264;2023-01-15T14:45:52;6.80;99.90
6357;DHT22;3211;53.452;-2.264;2023-01-15T14:48:34;6.80;99.90
6357;DHT22;3211;53.452;-2.264;2023-01-15T14:51:09;6.80;99.90
6357;DHT22;3211;53.452;-2.264;2023-01-15T14:53:40;6.90;99.90
6357;DHT22;3211;53.452;-2.264;2023-01-15T14:56:21;6.90;99.90
6357;DHT22;3211;53.452;-2.264;2023-01-15T14:58:54;7.00;99.90
6357;DHT22;3211;53.452;-2.264;2023-01-15T15:01:40;7.00;99.90
6357;DHT22;3211;53.452;-2.264;2023-01-15T15:04:17;6.90;99.90
6357;DHT22;3211;53.452;-2.264;2023-01-15T15:06:47;7.00;99.90
6357;DHT22;3211;53.452;-2.264;2023-01-15T15:09:32;7.00;99.90
6357;DHT22;3211;53.452;-2.264;2023-01-15T15:12:14;6.90;99.90
6357;DHT22;3211;53.452;-2.264;2023-01-15T15:14:50;6.90;99.90
6357;DHT22;3211;53.452;-2.264;2023-01-15T15:17:29;6.90;99.90
6357;DHT22;3211;53.452;-2.264;2023-01-15T15:20:03;6.90;99.90
6357;DHT22;3211;53.452;-2.264;2023-01-15T15:22:34;6.70;99.90
6357;DHT22;3211;53.452;-2.264;2023-01-15T15:25:09;6.60;99.90
6357;DHT22;3211;53.452;-2.264;2023-01-15T15:27:38;6.60;99.90
6357;DHT22;3211;53.452;-2.264;2023-01-15T15:30:06;6.50;99.90
6357;DHT22;3211;53.452;-2.264;2023-01-15T15:32:35;6.50;99.90
6357;DHT22;3211;53.452;-2.264;2023-01-15T15:35:19;6.50;99.90
6357;DHT22;3211;53.452;-2.264;2023-01-15T15:37:48;6.40;99.90
6357;DHT22;3211;53.452;-2.264;2023-01-15T15:40:17;6.40;99.90
6357;DHT22;3211;53.452;-2.264;2023-01-15T15:42:49;6.40;99.90
6357;DHT22;3211;53.452;-2.264;2023-01-15T15:45:35;6.50;99.90
6357;DHT22;3211;53.452;-2.264;2023-01-15T15:48:21;6.40;99.90
6357;DHT22;3211;53.452;-2.264;2023-01-15T15:51:28;6.50;99.90
6357;DHT22;3211;53.452;-2.264;2023-01-15T15:54:10;6.30;99.90
6357;DHT22;3211;53.452;-2.264;2023-01-15T15:56:40;6.30;99.90
6357;DHT22;3211;53.452;-2.264;2023-01-15T15:59:27;6.30;99.90
6357;DHT22;3211;53.452;-2.264;2023-01-15T16:01:57;6.30;99.90
6357;DHT22;3211;53.452;-2.264;2023-01-15T16:04:27;6.20;99.90
6357;DHT22;3211;53.452;-2.264;2023-01-15T16:06:54;6.20;99.90
6357;DHT22;3211;53.452;-2.264;2023-01-15T16:09:22;6.10;99.90
6357;DHT22;3211;53.452;-2.264;2023-01-15T16:11:51;6.10;99.90
6357;DHT22;3211;53.452;-2.264;2023-01-15T16:14:19;6.00;99.90
6357;DHT22;3211;53.452;-2.264;2023-01-15T16:16:48;6.20;99.90
6357;DHT22;3211;53.452;-2.264;2023-01-15T16:19:18;6.10;99.90
6357;DHT22;3211;53.452;-2.264;2023-01-15T16:21:48;6.00;99.90
6357;DHT22;3211;53.452;-2.264;2023-01-15T16:24:23;5.90;99.90
6357;DHT22;3211;53.452;-2.264;2023-01-15T16:26:58;5.90;99.90
6357;DHT22;3211;53.452;-2.264;2023-01-15T16:29:27;5.90;99.90
6357;DHT22;3211;53.452;-2.264;2023-01-15T16:31:55;5.80;99.90
6357;DHT22;3211;53.452;-2.264;2023-01-15T16:34:26;5.90;99.90
6357;DHT22;3211;53.452;-2.264;2023-01-15T16:36:57;5.80;99.90
6357;DHT22;3211;53.452;-2.264;2023-01-15T16:39:27;5.70;99.90
6357;DHT22;3211;53.452;-2.264;2023-01-15T16:41:57;5.70;99.90
6357;DHT22;3211;53.452;-2.264;2023-01-15T16:44:37;5.50;99.90